Time;durP1;ratioP1;P1;durP2;ratioP2;P2;SDS_P1;SDS_P2;PMS_P1;PMS_P2;Temp;Humidity;BMP_temperature;BMP_pressure;BME280_temperature;BME280_humidity;BME280_pressure;Samples;Min_cycle;Max_cycle;Signal;HPM_P1;HPM_P2
2023/05/11 00:01:54;;;;;;;15.18;11.50;;;359.20;2329.60;;;;;;5017427;28;20029;-83
2023/05/11 00:04:20;;;;;;;16.48;11.82;;;359.20;2329.60;;;;;;5018603;28;20076;-81
2023/05/11 00:06:46;;;;;;;14.05;11.23;;;359.20;2329.60;;;;;;5015618;28;20028;-81
2023/05/11 00:09:11;;;;;;;15.93;11.40;;;359.20;2329.60;;;;;;5037844;28;20192;-81
2023/05/11 00:11:37;;;;;;;16.85;13.05;;;359.20;2329.60;;;;;;5036615;28;20044;-82
2023/05/11 00:14:03;;;;;;;15.77;11.90;;;359.20;2329.60;;;;;;5037831;28;20032;-81
2023/05/11 00:16:29;;;;;;;19.70;12.75;;;359.20;2329.60;;;;;;5035864;28;20033;-81
2023/05/11 00:18:55;;;;;;;22.65;13.77;;;359.20;2329.60;;;;;;5021156;28;20030;-81
2023/05/11 00:21:21;;;;;;;17.38;11.85;;;359.20;2329.60;;;;;;5020936;28;20037;-81
2023/05/11 00:23:48;;;;;;;20.92;14.48;;;359.20;2329.60;;;;;;5040468;28;20052;-80
2023/05/11 00:26:14;;;;;;;19.25;12.88;;;359.20;2329.60;;;;;;5022007;28;20076;-80
2023/05/11 00:28:40;;;;;;;13.60;10.43;;;359.20;2329.60;;;;;;5008423;28;20026;-81
2023/05/11 00:31:05;;;;;;;13.73;10.85;;;359.20;2329.60;;;;;;5021645;28;20029;-81
2023/05/11 00:33:31;;;;;;;14.30;11.35;;;359.20;2329.60;;;;;;5023126;28;20032;-82
2023/05/11 00:35:57;;;;;;;15.48;13.23;;;359.20;2329.60;;;;;;5024301;28;20022;-81
2023/05/11 00:38:23;;;;;;;18.02;13.05;;;359.30;2329.60;;;;;;5021393;28;20027;-83
2023/05/11 00:40:49;;;;;;;15.27;11.00;;;359.30;2329.60;;;;;;5023153;28;20051;-81
2023/05/11 00:43:16;;;;;;;16.73;11.07;;;359.20;2329.60;;;;;;5039640;28;20040;-81
2023/05/11 00:45:43;;;;;;;20.15;14.07;;;359.20;2329.60;;;;;;5040240;28;20029;-82
2023/05/11 00:48:09;;;;;;;22.40;15.40;;;359.20;2329.60;;;;;;5025186;28;20184;-81
2023/05/11 00:50:35;;;;;;;27.05;18.02;;;359.30;2329.60;;;;;;5020576;28;20082;-82
2023/05/11 00:53:01;;;;;;;19.63;14.68;;;359.20;2329.60;;;;;;5005637;28;20068;-82
2023/05/11 00:55:28;;;;;;;17.30;12.45;;;359.20;2329.60;;;;;;5012236;28;20056;-83
2023/05/11 00:57:53;;;;;;;15.32;12.10;;;359.20;2329.60;;;;;;5041448;28;20022;-82
2023/05/11 01:00:20;;;;;;;17.05;11.48;;;359.20;2329.60;;;;;;5041663;28;20032;-82
2023/05/11 01:02:46;;;;;;;14.57;10.70;;;359.20;2329.60;;;;;;5041474;28;20030;-82
2023/05/11 01:05:12;;;;;;;16.50;11.88;;;359.20;2329.60;;;;;;5040372;28;20148;-82
2023/05/11 01:07:44;;;;;;;14.00;11.10;;;359.20;2329.60;;;;;;5041418;28;20133;-83
2023/05/11 01:10:37;;;;;;;13.50;10.45;;;359.30;2329.60;;;;;;5042559;28;20032;-82
2023/05/11 01:13:08;;;;;;;13.50;9.73;;;359.20;2329.60;;;;;;5022055;28;20081;-82
2023/05/11 01:15:43;;;;;;;13.65;9.98;;;359.20;2329.60;;;;;;5021765;28;20026;-82
2023/05/11 01:18:17;;;;;;;14.90;10.50;;;359.20;2329.60;;;;;;5025617;28;20112;-83
2023/05/11 01:20:46;;;;;;;16.27;10.65;;;359.10;2329.60;;;;;;5041070;28;20072;-82
2023/05/11 01:23:44;;;;;;;13.82;10.10;;;359.10;2329.60;;;;;;5025112;28;20026;-81
2023/05/11 01:26:28;;;;;;;12.25;10.02;;;359.00;2329.60;;;;;;5023671;28;20033;-82
2023/05/11 01:29:26;;;;;;;13.02;10.23;;;359.00;2329.60;;;;;;5026830;28;20107;-81
2023/05/11 01:31:54;;;;;;;11.13;8.93;;;359.00;2329.60;;;;;;5024673;28;20044;-82
2023/05/11 01:34:27;;;;;;;12.40;9.00;;;359.00;2329.60;;;;;;5025404;28;20033;-82
2023/05/11 01:37:15;;;;;;;11.32;9.20;;;359.00;2329.60;;;;;;5021649;28;20261;-83
2023/05/11 01:39:50;;;;;;;11.40;9.05;;;359.10;2329.60;;;;;;5031077;28;20052;-85
2023/05/11 01:42:19;;;;;;;12.15;9.02;;;359.10;2329.60;;;;;;5028196;28;20080;-84
2023/05/11 01:44:49;;;;;;;13.85;9.60;;;359.10;2329.60;;;;;;5042982;28;20022;-84
2023/05/11 01:47:16;;;;;;;11.07;9.07;;;359.10;2329.60;;;;;;5028862;28;20022;-83
2023/05/11 01:49:43;;;;;;;13.27;9.80;;;359.20;2329.60;;;;;;5027251;28;20026;-83
2023/05/11 01:52:11;;;;;;;11.13;9.13;;;359.10;2329.60;;;;;;5031076;28;20030;-82
2023/05/11 01:54:38;;;;;;;12.77;9.00;;;359.10;2329.60;;;;;;5024951;28;20099;-82
2023/05/11 01:57:05;;;;;;;14.15;10.27;;;359.10;2329.60;;;;;;5022834;28;20033;-83
2023/05/11 01:59:32;;;;;;;15.10;10.10;;;359.10;2329.60;;;;;;5039877;28;20025;-81
2023/05/11 02:01:59;;;;;;;15.48;10.25;;;359.10;2329.60;;;;;;5022795;28;20060;-82
2023/05/11 02:04:26;;;;;;;12.90;9.98;;;359.20;2329.60;;;;;;5022634;28;20022;-82
2023/05/11 02:06:54;;;;;;;12.63;10.02;;;359.10;2329.60;;;;;;5019898;28;20029;-82
2023/05/11 02:09:22;;;;;;;13.75;10.27;;;359.10;2329.60;;;;;;5021181;28;20049;-81
2023/05/11 02:11:50;;;;;;;12.75;9.73;;;359.10;2329.60;;;;;;5021104;28;20128;-82
2023/05/11 02:14:18;;;;;;;14.50;9.45;;;359.10;2329.60;;;;;;5019360;28;20032;-81
2023/05/11 02:16:46;;;;;;;10.50;9.10;;;359.20;2329.60;;;;;;5001955;28;20057;-82
2023/05/11 02:19:13;;;;;;;10.15;8.80;;;359.10;2329.60;;;;;;5001534;28;20034;-81
2023/05/11 02:21:40;;;;;;;12.85;9.88;;;359.20;2329.60;;;;;;5020871;28;20036;-81
2023/05/11 02:24:07;;;;;;;13.63;10.80;;;359.20;2329.60;;;;;;5021842;28;20098;-81
2023/05/11 02:26:33;;;;;;;13.52;9.77;;;359.20;2329.60;;;;;;5019617;28;20049;-80
2023/05/11 02:28:59;;;;;;;13.00;10.25;;;359.20;2329.60;;;;;;5021569;28;20057;-83
2023/05/11 02:31:28;;;;;;;14.93;10.55;;;359.20;2329.60;;;;;;5021417;28;20072;-81
2023/05/11 02:34:02;;;;;;;17.40;13.23;;;359.20;2329.60;;;;;;5021764;28;20048;-81
2023/05/11 02:36:29;;;;;;;13.15;10.32;;;359.20;2329.60;;;;;;5021850;28;20449;-81
2023/05/11 02:39:02;;;;;;;14.88;11.15;;;359.00;2329.60;;;;;;5039761;28;20081;-81
2023/05/11 02:41:29;;;;;;;12.13;9.50;;;359.00;2329.60;;;;;;5017929;28;20025;-82
2023/05/11 02:44:00;;;;;;;11.43;9.45;;;358.90;2329.60;;;;;;5034569;28;20037;-81
2023/05/11 02:46:32;;;;;;;13.18;10.52;;;358.90;2329.60;;;;;;5019507;28;20029;-81
2023/05/11 02:49:01;;;;;;;13.70;10.55;;;359.00;2329.60;;;;;;5020522;28;20025;-81
2023/05/11 02:51:34;;;;;;;16.38;11.02;;;359.00;2329.60;;;;;;5020552;28;20040;-82
2023/05/11 02:54:02;;;;;;;13.85;11.23;;;359.00;2329.60;;;;;;5021601;28;20022;-82
2023/05/11 02:56:29;;;;;;;13.23;11.30;;;359.00;2329.60;;;;;;5036347;28;20079;-81
2023/05/11 02:58:55;;;;;;;25.08;14.60;;;359.00;2329.60;;;;;;5039634;28;20026;-82
2023/05/11 03:01:21;;;;;;;15.07;12.02;;;359.00;2329.60;;;;;;5037796;28;20029;-81
2023/05/11 03:03:47;;;;;;;19.10;10.38;;;359.10;2329.60;;;;;;5021417;28;20072;-81
2023/05/11 03:06:12;;;;;;;11.95;10.60;;;359.10;2329.60;;;;;;5020058;28;20076;-81
2023/05/11 03:08:40;;;;;;;15.23;10.50;;;359.20;2329.60;;;;;;5021632;28;20573;-82
2023/05/11 03:11:08;;;;;;;16.23;11.52;;;359.20;2329.60;;;;;;5021552;28;20036;-81
2023/05/11 03:13:34;;;;;;;13.85;10.60;;;359.20;2329.60;;;;;;5022821;28;20033;-81
2023/05/11 03:16:01;;;;;;;15.98;11.95;;;359.20;2329.60;;;;;;5039677;28;20037;-81
2023/05/11 03:18:28;;;;;;;14.35;10.68;;;359.20;2329.60;;;;;;5040318;28;20071;-81
2023/05/11 03:20:56;;;;;;;13.55;11.57;;;359.20;2329.60;;;;;;5021819;28;20021;-81
2023/05/11 03:23:22;;;;;;;14.35;10.60;;;359.20;2329.60;;;;;;5022428;28;20040;-81
2023/05/11 03:25:49;;;;;;;12.82;10.75;;;359.20;2329.60;;;;;;5021446;28;20022;-82
2023/05/11 03:28:16;;;;;;;11.75;10.07;;;359.20;2329.60;;;;;;5022619;28;20069;-81
2023/05/11 03:30:45;;;;;;;14.23;10.85;;;359.20;2329.60;;;;;;5021380;28;20042;-81
2023/05/11 03:33:10;;;;;;;18.05;11.43;;;359.10;2329.60;;;;;;5022788;28;20025;-81
2023/05/11 03:35:40;;;;;;;17.23;12.38;;;359.00;2329.60;;;;;;5022187;28;20025;-80
2023/05/11 03:38:06;;;;;;;19.02;14.18;;;359.10;2329.60;;;;;;5027495;28;20053;-81
2023/05/11 03:40:33;;;;;;;17.75;14.02;;;359.10;2329.60;;;;;;5026901;28;20030;-81
2023/05/11 03:43:01;;;;;;;19.10;12.60;;;359.10;2329.60;;;;;;5026071;28;20418;-81
2023/05/11 03:45:30;;;;;;;15.40;12.40;;;359.00;2329.60;;;;;;5026841;28;20024;-81
2023/05/11 03:47:56;;;;;;;17.52;13.25;;;359.00;2329.60;;;;;;5028538;28;20036;-83
2023/05/11 03:50:23;;;;;;;17.00;12.25;;;359.00;2329.60;;;;;;5031633;28;20025;-82
2023/05/11 03:52:49;;;;;;;14.35;11.43;;;359.00;2329.60;;;;;;5028612;28;20044;-82
2023/05/11 03:55:15;;;;;;;15.55;12.18;;;359.00;2329.60;;;;;;5032535;28;20041;-81
2023/05/11 03:57:42;;;;;;;14.90;11.70;;;359.00;2329.60;;;;;;5024399;28;20030;-81
2023/05/11 04:00:10;;;;;;;17.58;11.77;;;359.00;2329.60;;;;;;5025403;28;20492;-81
2023/05/11 04:02:36;;;;;;;17.20;10.85;;;359.00;2329.60;;;;;;5024444;28;20064;-81
2023/05/11 04:05:09;;;;;;;16.30;12.77;;;359.00;2329.60;;;;;;5042803;28;20029;-81
2023/05/11 04:07:36;;;;;;;16.13;11.95;;;359.00;2329.60;;;;;;5040559;28;20053;-82
2023/05/11 04:10:03;;;;;;;13.82;11.15;;;358.50;2329.60;;;;;;5023586;28;20056;-81
2023/05/11 04:12:29;;;;;;;16.80;12.05;;;359.10;2329.60;;;;;;5024374;28;20029;-80
2023/05/11 04:14:55;;;;;;;14.45;11.38;;;359.00;2329.60;;;;;;5028303;28;20032;-83
2023/05/11 04:17:21;;;;;;;19.98;13.48;;;359.10;2329.60;;;;;;5049382;28;20026;-82
2023/05/11 04:19:47;;;;;;;18.42;11.98;;;359.10;2329.60;;;;;;5043673;28;20037;-81
2023/05/11 04:22:13;;;;;;;14.32;12.07;;;359.10;2329.60;;;;;;5020751;28;20045;-81
2023/05/11 04:24:39;;;;;;;14.80;11.75;;;359.10;2329.60;;;;;;5021855;28;20036;-81
2023/05/11 04:27:04;;;;;;;17.17;13.48;;;359.20;2329.60;;;;;;5021303;28;20076;-81
2023/05/11 04:29:30;;;;;;;16.25;12.15;;;359.20;2329.60;;;;;;5022389;28;20454;-81
2023/05/11 04:31:56;;;;;;;22.38;12.15;;;359.20;2329.60;;;;;;5020621;28;20032;-81
2023/05/11 04:34:22;;;;;;;18.25;12.88;;;359.20;2329.60;;;;;;5022440;28;20033;-81
2023/05/11 04:36:49;;;;;;;18.88;14.23;;;359.20;2329.60;;;;;;5020662;28;20032;-80
2023/05/11 04:39:15;;;;;;;18.33;15.60;;;384.00;2329.60;;;;;;5037919;28;20021;-81
2023/05/11 04:41:42;;;;;;;21.60;15.73;;;359.20;2329.60;;;;;;5037196;28;20036;-82
2023/05/11 04:44:08;;;;;;;22.33;15.68;;;359.20;2329.60;;;;;;5038647;28;20022;-81
2023/05/11 04:46:35;;;;;;;22.08;15.43;;;359.20;2329.60;;;;;;5038314;28;20098;-82
2023/05/11 04:49:01;;;;;;;16.55;13.93;;;359.20;2329.60;;;;;;5021505;28;20561;-81
2023/05/11 04:51:27;;;;;;;15.75;12.05;;;359.30;2329.60;;;;;;5038151;28;20065;-82
2023/05/11 04:53:53;;;;;;;17.65;12.63;;;359.30;2329.60;;;;;;5020965;28;20025;-81
2023/05/11 04:56:20;;;;;;;19.80;13.02;;;359.30;2329.60;;;;;;5020357;28;20052;-81
2023/05/11 04:58:46;;;;;;;19.80;14.15;;;359.30;2329.60;;;;;;5021558;28;20026;-81
2023/05/11 05:01:12;;;;;;;17.50;13.07;;;359.30;2329.60;;;;;;5037733;28;20101;-81
2023/05/11 05:03:38;;;;;;;17.30;12.20;;;359.30;2329.60;;;;;;5038126;28;20025;-82
2023/05/11 05:06:04;;;;;;;15.35;11.90;;;359.20;2329.60;;;;;;5036674;28;20048;-81
2023/05/11 05:08:30;;;;;;;13.45;11.18;;;359.30;2329.60;;;;;;5021639;28;20072;-80
2023/05/11 05:10:55;;;;;;;18.88;11.07;;;359.30;2329.60;;;;;;5020997;28;20472;-82
2023/05/11 05:13:21;;;;;;;13.93;10.98;;;359.30;2329.60;;;;;;5021569;28;20025;-82
2023/05/11 05:15:47;;;;;;;14.30;10.40;;;384.00;2329.60;;;;;;5017954;28;20080;-81
2023/05/11 05:18:13;;;;;;;12.27;10.32;;;384.00;2329.60;;;;;;5018729;28;20026;-82
2023/05/11 05:20:39;;;;;;;12.75;10.77;;;384.00;2329.60;;;;;;5018220;28;20022;-81
2023/05/11 05:23:05;;;;;;;15.05;11.25;;;384.00;2329.60;;;;;;5039215;28;20030;-81
2023/05/11 05:25:31;;;;;;;16.83;10.75;;;384.20;2329.60;;;;;;5020707;28;20440;-82
2023/05/11 05:27:56;;;;;;;13.60;11.25;;;384.10;2329.60;;;;;;5038908;28;20021;-81
2023/05/11 05:30:22;;;;;;;17.35;10.75;;;384.10;2329.60;;;;;;5036134;28;20025;-82
2023/05/11 05:32:48;;;;;;;15.32;11.75;;;384.10;2329.60;;;;;;5021077;28;20469;-81
2023/05/11 05:35:14;;;;;;;13.70;12.27;;;384.20;2329.60;;;;;;5020284;28;20029;-81
2023/05/11 05:37:40;;;;;;;19.23;12.52;;;384.20;2329.60;;;;;;5022248;28;20025;-82
2023/05/11 05:40:06;;;;;;;15.43;12.13;;;384.20;2329.60;;;;;;5040373;28;20052;-81
2023/05/11 05:42:32;;;;;;;13.70;11.68;;;384.20;2329.60;;;;;;5020650;28;20029;-81
2023/05/11 05:44:58;;;;;;;13.38;11.70;;;384.30;2329.60;;;;;;5022257;28;20453;-81
2023/05/11 05:47:23;;;;;;;16.75;11.70;;;384.30;2329.60;;;;;;5018031;28;20022;-81
2023/05/11 05:49:49;;;;;;;15.20;12.35;;;384.40;2329.60;;;;;;5018394;28;20032;-81
2023/05/11 05:52:15;;;;;;;14.65;11.77;;;384.40;2329.60;;;;;;5033089;28;20034;-81
2023/05/11 05:54:41;;;;;;;18.15;14.00;;;384.40;2329.60;;;;;;5039183;28;20026;-81
2023/05/11 05:57:07;;;;;;;19.52;12.90;;;384.40;2329.60;;;;;;5037071;28;20017;-82
2023/05/11 05:59:32;;;;;;;17.67;12.38;;;384.40;2329.60;;;;;;5037375;28;20068;-81
2023/05/11 06:01:58;;;;;;;17.73;11.70;;;384.40;2329.60;;;;;;5038159;28;20033;-81
2023/05/11 06:04:24;;;;;;;17.88;12.93;;;384.40;2329.60;;;;;;5021639;28;20030;-81
2023/05/11 06:06:50;;;;;;;14.77;12.32;;;384.40;2329.60;;;;;;5017732;28;20026;-81
2023/05/11 06:09:16;;;;;;;14.75;12.27;;;384.40;2329.60;;;;;;5019592;28;20061;-81
2023/05/11 06:11:41;;;;;;;18.73;13.38;;;384.40;2329.60;;;;;;5022088;28;20040;-81
2023/05/11 06:14:07;;;;;;;15.68;13.48;;;384.50;2329.60;;;;;;5022749;28;20492;-82
2023/05/11 06:16:33;;;;;;;18.10;13.23;;;384.50;2329.60;;;;;;5021615;28;20040;-81
2023/05/11 06:18:59;;;;;;;16.55;13.23;;;384.50;2329.60;;;;;;5022533;28;20071;-82
2023/05/11 06:21:25;;;;;;;18.52;12.23;;;384.60;2329.60;;;;;;5022032;28;20042;-81
2023/05/11 06:23:51;;;;;;;20.05;13.43;;;384.60;2329.60;;;;;;5023819;28;20049;-81
2023/05/11 06:26:16;;;;;;;15.38;11.82;;;384.70;2329.60;;;;;;5022301;28;20021;-81
2023/05/11 06:28:42;;;;;;;14.07;12.18;;;384.70;2329.60;;;;;;5023020;28;20052;-81
2023/05/11 06:31:08;;;;;;;18.38;12.15;;;384.70;2329.60;;;;;;5022503;28;20116;-82
2023/05/11 06:33:34;;;;;;;15.55;13.15;;;384.70;2329.60;;;;;;5040427;28;20017;-81
2023/05/11 06:36:04;;;;;;;18.45;12.32;;;384.70;2329.60;;;;;;5023120;28;20085;-82
2023/05/11 06:38:30;;;;;;;13.70;12.00;;;384.70;2329.60;;;;;;5041136;28;20436;-82
2023/05/11 06:40:56;;;;;;;17.50;12.40;;;384.70;2329.60;;;;;;5024127;28;20029;-82
2023/05/11 06:43:22;;;;;;;15.25;12.75;;;384.90;2329.60;;;;;;5008855;28;20072;-82
2023/05/11 06:45:48;;;;;;;15.55;12.68;;;384.90;2329.60;;;;;;5020851;28;20025;-81
2023/05/11 06:48:14;;;;;;;13.73;11.70;;;384.90;2329.60;;;;;;5023810;28;20048;-81
2023/05/11 06:50:40;;;;;;;22.25;16.10;;;409.60;2355.20;;;;;;5040802;28;20092;-84
2023/05/11 06:53:06;;;;;;;19.45;14.65;;;409.70;2355.20;;;;;;5032770;28;20093;-82
2023/05/11 06:55:32;;;;;;;18.95;14.05;;;409.70;2355.20;;;;;;5022883;28;20484;-82
2023/05/11 06:57:58;;;;;;;16.20;12.98;;;409.70;2355.20;;;;;;5027656;28;20029;-82
2023/05/11 07:00:24;;;;;;;19.00;13.32;;;409.80;2355.20;;;;;;5021891;28;20039;-82
2023/05/11 07:02:50;;;;;;;15.77;13.00;;;409.80;2355.20;;;;;;5020914;28;20033;-82
2023/05/11 07:05:16;;;;;;;14.40;12.88;;;409.90;2355.20;;;;;;5020788;28;20533;-81
2023/05/11 07:07:41;;;;;;;14.00;12.13;;;409.90;2355.20;;;;;;5036671;28;20057;-81
2023/05/11 07:10:08;;;;;;;14.52;11.57;;;409.90;2355.20;;;;;;5021513;28;20025;-81
2023/05/11 07:12:34;;;;;;;19.17;13.75;;;409.90;2355.20;;;;;;5022785;28;20045;-82
2023/05/11 07:14:59;;;;;;;18.55;12.55;;;410.00;2355.20;;;;;;5043004;28;20029;-81
2023/05/11 07:17:25;;;;;;;14.55;12.30;;;410.00;2355.20;;;;;;5040766;28;20025;-81
2023/05/11 07:19:51;;;;;;;14.10;12.57;;;410.00;2355.20;;;;;;5025412;28;20116;-81
2023/05/11 07:22:17;;;;;;;14.52;12.70;;;410.00;2355.20;;;;;;5024801;28;20033;-81
2023/05/11 07:24:43;;;;;;;15.02;12.48;;;410.00;2355.20;;;;;;5023297;28;20025;-81
2023/05/11 07:27:10;;;;;;;17.40;12.77;;;410.10;2355.20;;;;;;5042588;28;20018;-82
2023/05/11 07:29:35;;;;;;;17.17;13.30;;;410.10;2355.20;;;;;;5041794;28;20108;-81
2023/05/11 07:32:01;;;;;;;17.48;14.18;;;410.10;2355.20;;;;;;5040591;28;20061;-82
2023/05/11 07:34:27;;;;;;;18.20;14.35;;;410.10;2355.20;;;;;;5025344;28;20115;-82
2023/05/11 07:36:53;;;;;;;18.58;15.52;;;410.10;2355.20;;;;;;5023989;28;20432;-81
2023/05/11 07:39:19;;;;;;;22.70;16.38;;;410.10;2355.20;;;;;;5042629;28;20028;-81
2023/05/11 07:41:44;;;;;;;20.15;17.95;;;410.10;2355.20;;;;;;5024413;28;20029;-81
2023/05/11 07:44:10;;;;;;;16.45;13.80;;;410.10;2355.20;;;;;;5023407;28;20040;-82
2023/05/11 07:46:36;;;;;;;17.58;13.48;;;410.00;2355.20;;;;;;5023773;28;20033;-82
2023/05/11 07:49:02;;;;;;;15.57;13.27;;;410.00;2355.20;;;;;;5024143;28;20280;-82
2023/05/11 07:51:28;;;;;;;17.63;14.02;;;410.00;2355.20;;;;;;5020211;28;20463;-83
2023/05/11 07:53:54;;;;;;;16.33;13.38;;;410.00;2355.20;;;;;;5020291;28;20080;-81
2023/05/11 07:56:20;;;;;;;15.52;12.60;;;410.00;2355.20;;;;;;5035705;28;20025;-82
2023/05/11 07:58:46;;;;;;;22.83;14.13;;;410.00;2355.20;;;;;;5023822;28;20112;-81
2023/05/11 08:01:12;;;;;;;19.20;16.77;;;410.00;2355.20;;;;;;5023255;28;20026;-81
2023/05/11 08:03:38;;;;;;;17.40;14.75;;;410.00;2355.20;;;;;;5042760;28;20033;-82
2023/05/11 08:06:04;;;;;;;18.83;16.20;;;410.00;2355.20;;;;;;5024107;28;20030;-82
2023/05/11 08:08:30;;;;;;;25.25;19.42;;;410.10;2355.20;;;;;;5023236;28;20045;-82
2023/05/11 08:10:56;;;;;;;37.70;26.67;;;410.10;2355.20;;;;;;5023875;28;20060;-82
2023/05/11 08:13:21;;;;;;;29.92;25.80;;;410.10;2355.20;;;;;;5023848;28;20097;-86
2023/05/11 08:15:47;;;;;;;29.38;24.73;;;410.00;2355.20;;;;;;5026408;28;20021;-86
2023/05/11 08:18:13;;;;;;;23.52;18.75;;;410.00;2355.20;;;;;;5025962;28;20026;-84
2023/05/11 08:20:41;;;;;;;25.52;19.23;;;409.90;2355.20;;;;;;5026579;28;20017;-86
2023/05/11 08:23:08;;;;;;;23.90;19.48;;;409.90;2355.20;;;;;;5031120;28;20029;-86
2023/05/11 08:25:33;;;;;;;26.00;17.52;;;409.90;2355.20;;;;;;5028097;28;20040;-85
2023/05/11 08:28:00;;;;;;;21.67;16.70;;;409.90;2355.20;;;;;;5045079;28;20461;-84
2023/05/11 08:30:29;;;;;;;24.70;18.50;;;409.90;2355.20;;;;;;5023142;28;20037;-88
2023/05/11 08:32:54;;;;;;;23.90;19.42;;;409.90;2355.20;;;;;;5025335;28;20112;-83
2023/05/11 08:35:20;;;;;;;22.77;18.88;;;409.90;2355.20;;;;;;5041012;28;20103;-84
2023/05/11 08:37:46;;;;;;;22.98;17.65;;;410.00;2355.20;;;;;;5040200;28;20036;-80
2023/05/11 08:40:12;;;;;;;23.13;17.35;;;410.00;2355.20;;;;;;5036142;28;20583;-80
2023/05/11 08:42:41;;;;;;;21.02;17.00;;;410.00;2355.20;;;;;;5036461;28;20046;-81
2023/05/11 08:45:09;;;;;;;21.95;17.08;;;410.20;2355.20;;;;;;5048752;28;20064;-81
2023/05/11 08:47:36;;;;;;;17.75;15.57;;;410.10;2355.20;;;;;;5025868;28;20037;-82
2023/05/11 08:50:02;;;;;;;17.63;15.73;;;410.20;2355.20;;;;;;5051258;28;20362;-81
2023/05/11 08:52:27;;;;;;;19.65;16.35;;;410.30;2355.20;;;;;;5020040;28;20036;-81
2023/05/11 08:54:53;;;;;;;19.27;16.23;;;410.50;2355.20;;;;;;5028429;28;20021;-82
2023/05/11 08:57:19;;;;;;;18.63;16.13;;;410.50;2355.20;;;;;;5013899;28;20033;-80
2023/05/11 08:59:46;;;;;;;19.77;16.70;;;410.50;2355.20;;;;;;5032953;28;20029;-83
2023/05/11 09:02:16;;;;;;;19.77;16.35;;;410.50;2355.20;;;;;;5029723;28;20033;-82
2023/05/11 09:04:44;;;;;;;18.65;16.65;;;410.50;2355.20;;;;;;5022146;28;20040;-82
2023/05/11 09:07:16;;;;;;;19.20;16.90;;;435.20;2355.20;;;;;;5019860;28;20053;-81
2023/05/11 09:09:42;;;;;;;23.17;16.55;;;435.20;2355.20;;;;;;5021500;28;20351;-80
2023/05/11 09:12:08;;;;;;;20.90;16.48;;;435.20;2355.20;;;;;;5020774;28;20133;-80
2023/05/11 09:14:35;;;;;;;20.35;16.50;;;435.30;2355.20;;;;;;5022555;28;20055;-82
2023/05/11 09:17:02;;;;;;;20.75;14.65;;;435.30;2355.20;;;;;;5037764;28;20021;-82
2023/05/11 09:19:28;;;;;;;24.42;17.95;;;435.30;2355.20;;;;;;5031624;28;20025;-82
2023/05/11 09:21:54;;;;;;;21.25;15.32;;;435.80;2355.20;;;;;;5028412;28;20036;-81
2023/05/11 09:24:21;;;;;;;16.40;14.27;;;435.30;2355.20;;;;;;5037751;28;20500;-82
2023/05/11 09:26:47;;;;;;;19.95;14.27;;;435.30;2355.20;;;;;;5011308;28;20029;-81
2023/05/11 09:29:14;;;;;;;18.83;14.80;;;435.30;2355.20;;;;;;5027259;28;20029;-81
2023/05/11 09:31:45;;;;;;;20.55;12.85;;;435.30;2355.20;;;;;;5028751;28;20137;-82
2023/05/11 09:34:15;;;;;;;16.77;13.50;;;435.40;2355.20;;;;;;5035682;28;20029;-81
2023/05/11 09:36:52;;;;;;;16.23;14.48;;;435.40;2355.20;;;;;;5028898;28;20558;-81
2023/05/11 09:39:29;;;;;;;20.88;14.60;;;435.50;2355.20;;;;;;5022095;28;20524;-83
2023/05/11 09:42:14;;;;;;;15.82;13.73;;;435.40;2355.20;;;;;;5020696;28;20107;-80
2023/05/11 09:44:42;;;;;;;15.85;12.70;;;435.40;2355.20;;;;;;5015008;28;20030;-81
2023/05/11 09:47:12;;;;;;;14.25;12.55;;;435.30;2355.20;;;;;;5035827;28;20029;-82
2023/05/11 09:49:42;;;;;;;18.42;12.68;;;435.30;2355.20;;;;;;5019084;28;20033;-82
2023/05/11 09:52:09;;;;;;;15.35;13.07;;;435.30;2355.20;;;;;;5016925;28;20084;-82
2023/05/11 09:54:43;;;;;;;18.23;13.40;;;435.30;2355.20;;;;;;5015263;28;20030;-83
2023/05/11 09:57:29;;;;;;;19.38;15.93;;;435.30;2355.20;;;;;;5005178;28;20112;-81
2023/05/11 09:59:56;;;;;;;20.73;16.08;;;435.30;2355.20;;;;;;5018709;28;20061;-82
2023/05/11 10:02:27;;;;;;;17.60;15.75;;;435.20;2355.20;;;;;;5017792;28;20049;-82
2023/05/11 10:04:55;;;;;;;19.38;16.52;;;435.20;2355.20;;;;;;5004800;28;20441;-83
2023/05/11 10:07:32;;;;;;;24.92;18.17;;;435.20;2355.20;;;;;;5022271;28;20623;-82
2023/05/11 10:10:01;;;;;;;20.13;15.52;;;435.30;2355.20;;;;;;5023140;28;20079;-81
2023/05/11 10:12:27;;;;;;;21.67;16.90;;;435.30;2355.20;;;;;;5021193;28;20102;-81
2023/05/11 10:14:57;;;;;;;19.98;15.70;;;435.50;2355.20;;;;;;5019287;28;20028;-82
2023/05/11 10:17:24;;;;;;;18.52;15.57;;;435.50;2355.20;;;;;;5024683;28;20039;-82
2023/05/11 10:19:52;;;;;;;19.02;14.77;;;435.60;2355.20;;;;;;5020457;28;20065;-82
2023/05/11 10:22:18;;;;;;;20.88;16.20;;;435.60;2355.20;;;;;;5053185;28;20025;-82
2023/05/11 10:24:45;;;;;;;17.88;14.98;;;435.60;2355.20;;;;;;5022305;28;20083;-82
2023/05/11 10:27:12;;;;;;;20.77;14.93;;;435.60;2355.20;;;;;;5024669;28;20087;-82
2023/05/11 10:29:38;;;;;;;19.45;14.40;;;435.60;2355.20;;;;;;5017299;28;20033;-81
2023/05/11 10:32:06;;;;;;;22.40;15.60;;;435.60;2355.20;;;;;;5027127;28;20034;-81
2023/05/11 10:34:33;;;;;;;29.50;15.68;;;435.50;2355.20;;;;;;5005342;28;20029;-80
2023/05/11 10:37:03;;;;;;;22.30;16.20;;;435.50;2355.20;;;;;;5032744;28;20112;-80
2023/05/11 10:39:29;;;;;;;21.70;15.13;;;435.50;2355.20;;;;;;5019959;28;20021;-80
2023/05/11 10:42:19;;;;;;;23.58;14.55;;;435.50;2355.20;;;;;;5012822;28;20422;-80
2023/05/11 10:44:54;;;;;;;24.05;18.27;;;435.50;2355.20;;;;;;5030795;28;20032;-79
2023/05/11 10:47:47;;;;;;;22.17;16.38;;;435.50;2355.20;;;;;;5019687;28;20024;-79
2023/05/11 10:50:40;;;;;;;20.27;15.20;;;435.50;2355.20;;;;;;5019061;28;20029;-81
2023/05/11 10:53:24;;;;;;;27.25;15.70;;;435.50;2355.20;;;;;;5018991;28;20120;-83
2023/05/11 10:56:08;;;;;;;17.65;15.32;;;435.50;2355.20;;;;;;5045814;28;20075;-82
2023/05/11 10:59:13;;;;;;;19.38;14.60;;;435.50;2355.20;;;;;;5023582;28;20079;-81
2023/05/11 11:01:39;;;;;;;17.60;13.32;;;435.50;2355.20;;;;;;4996780;28;20046;-81
2023/05/11 11:04:07;;;;;;;18.10;14.45;;;410.50;2355.20;;;;;;5021282;28;20203;-83
2023/05/11 11:06:43;;;;;;;18.42;14.27;;;435.50;2355.20;;;;;;5038529;28;20029;-85
2023/05/11 11:09:14;;;;;;;23.23;14.15;;;435.50;2355.20;;;;;;5019583;28;20046;-81
2023/05/11 11:11:46;;;;;;;25.35;13.82;;;435.50;2355.20;;;;;;5018017;28;20157;-80
2023/05/11 11:14:14;;;;;;;20.10;12.73;;;435.50;2355.20;;;;;;5034458;28;20021;-79
2023/05/11 11:17:00;;;;;;;16.98;13.60;;;435.50;2355.20;;;;;;5037613;28;20026;-81
2023/05/11 11:19:29;;;;;;;19.40;14.40;;;435.50;2355.20;;;;;;5026733;28;20025;-79
2023/05/11 11:22:02;;;;;;;20.42;15.05;;;435.50;2355.20;;;;;;5039205;28;20115;-79
2023/05/11 11:24:37;;;;;;;22.98;17.95;;;435.50;2355.20;;;;;;5013402;28;20034;-79
2023/05/11 11:27:08;;;;;;;23.77;16.60;;;435.50;2355.20;;;;;;5020900;28;20086;-80
2023/05/11 11:29:35;;;;;;;36.97;27.92;;;435.50;2355.20;;;;;;5027570;28;20112;-80
2023/05/11 11:32:22;;;;;;;94.63;66.55;;;435.60;2355.20;;;;;;5014280;28;20474;-80
2023/05/11 11:34:49;;;;;;;55.63;45.50;;;435.60;2355.20;;;;;;5024717;28;20025;-79
2023/05/11 11:37:16;;;;;;;26.08;20.33;;;435.60;2355.20;;;;;;5019638;28;20108;-79
2023/05/11 11:39:41;;;;;;;24.23;16.13;;;435.60;2355.20;;;;;;5018089;28;20029;-80
2023/05/11 11:42:08;;;;;;;22.70;17.38;;;435.60;2355.20;;;;;;5036202;28;20079;-80
2023/05/11 11:44:35;;;;;;;22.98;18.77;;;435.60;2355.20;;;;;;5017474;28;20500;-80
2023/05/11 11:47:17;;;;;;;27.92;20.10;;;435.60;2355.20;;;;;;5036485;28;20022;-80
2023/05/11 11:49:45;;;;;;;27.43;17.70;;;435.60;2355.20;;;;;;5026487;28;20028;-79
2023/05/11 11:52:34;;;;;;;18.92;15.43;;;435.80;2355.20;;;;;;5018729;28;20044;-79
2023/05/11 11:55:02;;;;;;;21.33;17.15;;;435.70;2355.20;;;;;;5018752;28;20036;-81
2023/05/11 11:57:34;;;;;;;20.83;16.08;;;435.70;2355.20;;;;;;5038908;28;20022;-83
2023/05/11 12:00:05;;;;;;;23.08;17.02;;;435.60;2355.20;;;;;;5034010;28;20025;-83
2023/05/11 12:02:32;;;;;;;20.40;16.60;;;435.60;2355.20;;;;;;5021877;28;20088;-81
2023/05/11 12:05:18;;;;;;;19.02;15.70;;;435.60;2355.20;;;;;;5031588;28;20066;-79